SHU157 UUWW-UUBC
Flight info
| Callsign | SHU157 |
|---|---|
| Flight time | 0h 25m |
| Altitude | 12000 |
| Route | SOTOG3W SOTOG SOTOG1K |
| Aircraft | A319/M-SDE3FGHIRWY/LB1 |
Departure
| Time | 2026-04-21 17:40 |
|---|---|
| Airport | Vnukovo International Airport (UUWW) |
Arrival
| Time | 2026-04-21 18:06 |
|---|---|
| Airport | Grabtsevo Airport (UUBC) |
| Time | Latitude | Longitude | Altitude | Speed | Heading |
|---|---|---|---|---|---|
| 2026-04-21 17:12 | 55.60185 | 37.28063 | 685 ft | 0 kts | 39° |
| 2026-04-21 17:26 | 55.60182 | 37.28059 | 683 ft | 3 kts | 39° |
| 2026-04-21 17:26 | 55.60167 | 37.28036 | 685 ft | 3 kts | 37° |
| 2026-04-21 17:26 | 55.60150 | 37.28015 | 681 ft | 3 kts | 34° |
| 2026-04-21 17:27 | 55.60133 | 37.27996 | 683 ft | 3 kts | 28° |
| 2026-04-21 17:27 | 55.60115 | 37.27980 | 681 ft | 3 kts | 18° |
| 2026-04-21 17:27 | 55.60104 | 37.27975 | 683 ft | 1 kts | 12° |
| 2026-04-21 17:27 | 55.60102 | 37.27974 | 684 ft | 0 kts | 12° |
| 2026-04-21 17:29 | 55.60109 | 37.27968 | 682 ft | 2 kts | 330° |
| 2026-04-21 17:29 | 55.60116 | 37.27930 | 682 ft | 5 kts | 285° |
| 2026-04-21 17:30 | 55.60098 | 37.27855 | 685 ft | 9 kts | 231° |
| 2026-04-21 17:30 | 55.60043 | 37.27760 | 684 ft | 13 kts | 218° |
| 2026-04-21 17:30 | 55.59966 | 37.27646 | 685 ft | 16 kts | 236° |
| 2026-04-21 17:30 | 55.59896 | 37.27465 | 685 ft | 20 kts | 227° |
| 2026-04-21 17:31 | 55.59787 | 37.27282 | 685 ft | 23 kts | 225° |
| 2026-04-21 17:31 | 55.59680 | 37.27094 | 681 ft | 20 kts | 225° |
| 2026-04-21 17:31 | 55.59576 | 37.26901 | 685 ft | 21 kts | 224° |
| 2026-04-21 17:31 | 55.59476 | 37.26885 | 680 ft | 16 kts | 209° |
| 2026-04-21 17:32 | 55.59441 | 37.26828 | 685 ft | 0 kts | 225° |
| 2026-04-21 17:32 | 55.59431 | 37.26810 | 682 ft | 4 kts | 225° |
| 2026-04-21 17:32 | 55.59400 | 37.26755 | 685 ft | 9 kts | 225° |
| 2026-04-21 17:32 | 55.59343 | 37.26667 | 684 ft | 13 kts | 217° |
| 2026-04-21 17:33 | 55.59255 | 37.26552 | 683 ft | 18 kts | 205° |
| 2026-04-21 17:33 | 55.59131 | 37.26454 | 684 ft | 19 kts | 204° |
| 2026-04-21 17:33 | 55.59107 | 37.26435 | 684 ft | 3 kts | 204° |
| 2026-04-21 17:33 | 55.59078 | 37.26412 | 684 ft | 6 kts | 204° |
| 2026-04-21 17:34 | 55.59038 | 37.26380 | 685 ft | 0 kts | 204° |
| 2026-04-21 17:36 | 55.59034 | 37.26377 | 685 ft | 2 kts | 204° |
| 2026-04-21 17:36 | 55.59003 | 37.26352 | 685 ft | 7 kts | 204° |
| 2026-04-21 17:37 | 55.58940 | 37.26304 | 685 ft | 12 kts | 202° |
| 2026-04-21 17:37 | 55.58850 | 37.26229 | 685 ft | 16 kts | 220° |
| 2026-04-21 17:37 | 55.58821 | 37.26146 | 685 ft | 0 kts | 247° |
| 2026-04-21 17:37 | 55.58819 | 37.26137 | 685 ft | 0 kts | 247° |
| 2026-04-21 17:39 | 55.58810 | 37.26102 | 683 ft | 6 kts | 247° |
| 2026-04-21 17:39 | 55.58788 | 37.26006 | 684 ft | 11 kts | 251° |
| 2026-04-21 17:39 | 55.58816 | 37.25890 | 684 ft | 11 kts | 9° |
| 2026-04-21 17:40 | 55.58932 | 37.25978 | 685 ft | 42 kts | 21° |
| 2026-04-21 17:40 | 55.59502 | 37.26396 | 682 ft | 131 kts | 23° |
| 2026-04-21 17:40 | 55.60479 | 37.27130 | 1153 ft | 155 kts | 22° |
| 2026-04-21 17:40 | 55.61453 | 37.27887 | 2068 ft | 155 kts | 23° |
| 2026-04-21 17:41 | 55.62111 | 37.28396 | 2666 ft | 160 kts | 23° |
| 2026-04-21 17:41 | 55.63186 | 37.29223 | 3148 ft | 179 kts | 23° |
| 2026-04-21 17:41 | 55.64366 | 37.30129 | 3683 ft | 191 kts | 23° |
| 2026-04-21 17:41 | 55.66011 | 37.31420 | 4701 ft | 197 kts | 28° |
| 2026-04-21 17:42 | 55.66725 | 37.32470 | 5259 ft | 202 kts | 52° |
| 2026-04-21 17:42 | 55.67156 | 37.34845 | 5873 ft | 224 kts | 88° |
| 2026-04-21 17:42 | 55.66780 | 37.37603 | 5996 ft | 234 kts | 107° |
| 2026-04-21 17:42 | 55.66124 | 37.40243 | 5996 ft | 236 kts | 117° |
| 2026-04-21 17:43 | 55.65016 | 37.42428 | 6009 ft | 244 kts | 140° |
| 2026-04-21 17:43 | 55.63471 | 37.43977 | 6009 ft | 263 kts | 153° |
| 2026-04-21 17:43 | 55.61803 | 37.45348 | 6007 ft | 266 kts | 152° |
| 2026-04-21 17:43 | 55.60124 | 37.46742 | 6004 ft | 267 kts | 156° |
| 2026-04-21 17:44 | 55.58353 | 37.47350 | 6008 ft | 271 kts | 179° |
| 2026-04-21 17:44 | 55.56531 | 37.46744 | 6008 ft | 272 kts | 202° |
| 2026-04-21 17:44 | 55.54947 | 37.44961 | 6007 ft | 272 kts | 224° |
| 2026-04-21 17:44 | 55.53579 | 37.42619 | 5995 ft | 272 kts | 225° |
| 2026-04-21 17:45 | 55.52219 | 37.40295 | 5989 ft | 272 kts | 225° |
| 2026-04-21 17:45 | 55.50856 | 37.37975 | 5993 ft | 272 kts | 225° |
| 2026-04-21 17:45 | 55.49488 | 37.35658 | 5994 ft | 273 kts | 225° |
| 2026-04-21 17:45 | 55.48581 | 37.34126 | 5998 ft | 273 kts | 225° |
| 2026-04-21 17:46 | 55.47253 | 37.31835 | 6000 ft | 273 kts | 230° |
| 2026-04-21 17:46 | 55.46107 | 37.29133 | 6005 ft | 280 kts | 237° |
| 2026-04-21 17:46 | 55.45357 | 37.27235 | 6005 ft | 282 kts | 237° |
| 2026-04-21 17:46 | 55.44414 | 37.24862 | 6005 ft | 283 kts | 237° |
| 2026-04-21 17:47 | 55.43282 | 37.22019 | 6030 ft | 285 kts | 237° |
| 2026-04-21 17:47 | 55.41956 | 37.19392 | 6806 ft | 289 kts | 222° |
| 2026-04-21 17:47 | 55.40289 | 37.17398 | 7818 ft | 293 kts | 206° |
| 2026-04-21 17:47 | 55.38379 | 37.16054 | 8800 ft | 297 kts | 199° |
| 2026-04-21 17:48 | 55.37091 | 37.15222 | 9440 ft | 301 kts | 199° |
| 2026-04-21 17:48 | 55.35611 | 37.14274 | 10101 ft | 305 kts | 199° |
| 2026-04-21 17:48 | 55.33623 | 37.13001 | 10986 ft | 308 kts | 199° |
| 2026-04-21 17:48 | 55.31595 | 37.11617 | 11653 ft | 314 kts | 205° |
| 2026-04-21 17:49 | 55.29729 | 37.09630 | 11868 ft | 314 kts | 215° |
| 2026-04-21 17:49 | 55.27872 | 37.07355 | 11922 ft | 342 kts | 215° |
| 2026-04-21 17:49 | 55.25827 | 37.04858 | 11921 ft | 374 kts | 215° |
| 2026-04-21 17:49 | 55.23636 | 37.02191 | 11921 ft | 390 kts | 214° |
| 2026-04-21 17:50 | 55.21330 | 36.99656 | 11918 ft | 393 kts | 207° |
| 2026-04-21 17:50 | 55.18834 | 36.97718 | 11920 ft | 393 kts | 202° |
| 2026-04-21 17:50 | 55.16308 | 36.95880 | 11922 ft | 393 kts | 202° |
| 2026-04-21 17:50 | 55.15484 | 36.95279 | 11919 ft | 393 kts | 202° |
| 2026-04-21 17:51 | 55.15044 | 36.94956 | 11920 ft | 393 kts | 202° |
| 2026-04-21 17:51 | 55.12852 | 36.93450 | 11886 ft | 393 kts | 201° |
| 2026-04-21 17:51 | 55.10318 | 36.91643 | 11916 ft | 393 kts | 202° |
| 2026-04-21 17:51 | 55.07799 | 36.89780 | 11914 ft | 393 kts | 202° |
| 2026-04-21 17:52 | 55.05285 | 36.87895 | 11918 ft | 393 kts | 202° |
| 2026-04-21 17:52 | 55.02783 | 36.86027 | 11852 ft | 388 kts | 202° |
| 2026-04-21 17:52 | 55.00335 | 36.84217 | 11589 ft | 374 kts | 202° |
| 2026-04-21 17:52 | 54.98000 | 36.82507 | 11339 ft | 366 kts | 202° |
| 2026-04-21 17:53 | 54.95666 | 36.80812 | 11089 ft | 362 kts | 202° |
| 2026-04-21 17:53 | 54.93352 | 36.79144 | 10843 ft | 360 kts | 202° |
| 2026-04-21 17:53 | 54.91036 | 36.77476 | 10584 ft | 359 kts | 202° |
| 2026-04-21 17:53 | 54.88733 | 36.75818 | 10333 ft | 358 kts | 202° |
| 2026-04-21 17:54 | 54.86449 | 36.74173 | 10081 ft | 356 kts | 202° |
| 2026-04-21 17:54 | 54.84197 | 36.72551 | 9851 ft | 344 kts | 202° |
| 2026-04-21 17:54 | 54.82032 | 36.70991 | 9705 ft | 329 kts | 202° |
| 2026-04-21 17:54 | 54.79957 | 36.69507 | 9567 ft | 316 kts | 201° |
| 2026-04-21 17:55 | 54.77965 | 36.68086 | 9429 ft | 305 kts | 201° |
| 2026-04-21 17:55 | 54.76023 | 36.66707 | 9289 ft | 300 kts | 201° |
| 2026-04-21 17:55 | 54.74095 | 36.65345 | 9157 ft | 298 kts | 201° |
| 2026-04-21 17:55 | 54.72114 | 36.64350 | 9015 ft | 296 kts | 190° |
| 2026-04-21 17:56 | 54.70093 | 36.63625 | 8534 ft | 300 kts | 190° |
| 2026-04-21 17:56 | 54.68060 | 36.62889 | 8183 ft | 296 kts | 191° |
| 2026-04-21 17:56 | 54.66615 | 36.62365 | 7838 ft | 296 kts | 191° |
| 2026-04-21 17:56 | 54.64597 | 36.61631 | 7420 ft | 295 kts | 191° |
| 2026-04-21 17:57 | 54.62602 | 36.60906 | 7007 ft | 293 kts | 191° |
| 2026-04-21 17:57 | 54.60609 | 36.60183 | 6597 ft | 292 kts | 191° |
| 2026-04-21 17:57 | 54.58626 | 36.59467 | 6170 ft | 290 kts | 191° |
| 2026-04-21 17:57 | 54.56657 | 36.58758 | 5730 ft | 289 kts | 191° |
| 2026-04-21 17:58 | 54.54691 | 36.58047 | 5121 ft | 293 kts | 191° |
| 2026-04-21 17:58 | 54.52668 | 36.57316 | 4446 ft | 299 kts | 191° |
| 2026-04-21 17:58 | 54.50674 | 36.56619 | 4319 ft | 283 kts | 188° |
| 2026-04-21 17:58 | 54.48819 | 36.56893 | 4329 ft | 258 kts | 156° |
| 2026-04-21 17:59 | 54.47481 | 36.58633 | 4328 ft | 232 kts | 121° |
| 2026-04-21 17:59 | 54.47037 | 36.61073 | 4309 ft | 204 kts | 81° |
| 2026-04-21 17:59 | 54.47618 | 36.63085 | 4252 ft | 184 kts | 37° |
| 2026-04-21 17:59 | 54.48790 | 36.63578 | 4165 ft | 177 kts | 346° |
| 2026-04-21 18:00 | 54.49552 | 36.62503 | 4012 ft | 178 kts | 301° |
| 2026-04-21 18:00 | 54.49665 | 36.60669 | 3791 ft | 170 kts | 267° |
| 2026-04-21 18:00 | 54.49340 | 36.58838 | 3730 ft | 157 kts | 248° |
| 2026-04-21 18:00 | 54.48748 | 36.57300 | 3684 ft | 153 kts | 231° |
| 2026-04-21 18:01 | 54.47946 | 36.56109 | 3677 ft | 152 kts | 214° |
| 2026-04-21 18:01 | 54.47024 | 36.55339 | 3645 ft | 151 kts | 199° |
| 2026-04-21 18:01 | 54.46082 | 36.54544 | 3602 ft | 150 kts | 219° |
| 2026-04-21 18:01 | 54.45420 | 36.53169 | 3570 ft | 146 kts | 247° |
| 2026-04-21 18:02 | 54.45168 | 36.51518 | 3524 ft | 142 kts | 272° |
| 2026-04-21 18:02 | 54.45308 | 36.49902 | 3245 ft | 136 kts | 295° |
| 2026-04-21 18:02 | 54.45789 | 36.48556 | 2937 ft | 131 kts | 317° |
| 2026-04-21 18:02 | 54.46496 | 36.47587 | 2658 ft | 127 kts | 327° |
| 2026-04-21 18:03 | 54.47211 | 36.46692 | 2438 ft | 127 kts | 327° |
| 2026-04-21 18:03 | 54.47915 | 36.45812 | 2237 ft | 127 kts | 327° |
| 2026-04-21 18:03 | 54.48636 | 36.44911 | 2053 ft | 127 kts | 326° |
| 2026-04-21 18:03 | 54.49349 | 36.44019 | 1868 ft | 127 kts | 326° |
| 2026-04-21 18:04 | 54.50053 | 36.43137 | 1693 ft | 127 kts | 326° |
| 2026-04-21 18:04 | 54.50760 | 36.42235 | 1488 ft | 128 kts | 324° |
| 2026-04-21 18:04 | 54.51483 | 36.41315 | 1306 ft | 130 kts | 325° |
| 2026-04-21 18:04 | 54.52223 | 36.40407 | 1109 ft | 132 kts | 324° |
| 2026-04-21 18:05 | 54.52970 | 36.39483 | 924 ft | 132 kts | 323° |
| 2026-04-21 18:05 | 54.53714 | 36.38550 | 769 ft | 132 kts | 323° |
| 2026-04-21 18:05 | 54.54459 | 36.37620 | 686 ft | 132 kts | 323° |
| 2026-04-21 18:05 | 54.55181 | 36.36707 | 660 ft | 117 kts | 323° |
| 2026-04-21 18:06 | 54.55695 | 36.36051 | 667 ft | 58 kts | 323° |
| 2026-04-21 18:06 | 54.55805 | 36.35910 | 667 ft | 0 kts | 323° |
| 2026-04-21 18:07 | 54.55808 | 36.35906 | 667 ft | 1 kts | 317° |
| 2026-04-21 18:07 | 54.55806 | 36.35889 | 666 ft | 2 kts | 263° |
| 2026-04-21 18:07 | 54.55795 | 36.35878 | 668 ft | 3 kts | 194° |
| 2026-04-21 18:07 | 54.55769 | 36.35874 | 668 ft | 5 kts | 179° |
| 2026-04-21 18:08 | 54.55731 | 36.35921 | 668 ft | 9 kts | 133° |
| 2026-04-21 18:08 | 54.55682 | 36.36025 | 667 ft | 13 kts | 127° |
| 2026-04-21 18:08 | 54.55607 | 36.36170 | 665 ft | 20 kts | 135° |
| 2026-04-21 18:08 | 54.55484 | 36.36328 | 663 ft | 25 kts | 145° |
| 2026-04-21 18:09 | 54.55341 | 36.36500 | 664 ft | 27 kts | 145° |
| 2026-04-21 18:09 | 54.55183 | 36.36697 | 660 ft | 30 kts | 142° |